• Join FlightAware (Why Join?)
  • Login
  • US Flag 
06:01AM EDT


 

Airport Tracker/Info


-or-


 

Live Flight TrackerFlight Track Log ✈ N400PU ✈ 17-Dec-2013 ✈ KLAF - KMLI

Flight Track Log - Related Links

Times and Time Zones

All times are in EST time to prevent confusion due to time zone crossing. See the N400PU flight status page for this flight to view local times or setup timezone preferences in your user account.

Time Position Orientation Groundspeed Altitude Reporting Facility
EST Latitude Longitude Course Direction KTS MPH feet Rate Location/Type
07:29AM 40.4378 -87.0183 291° West 201 231 3,600  Level Chicago Center
07:30AM 40.4633 -87.0978 293° West 235 270 6,100 2,640 Climbing Chicago Center
07:31AM 40.5870 -87.5059 290° West  Level Estimated
07:31AM 40.4864 -87.1764 291° West 231 266 9,000  Level Chicago Center
07:32AM 40.6151 -87.6014 291° West  Level FlightAware Approximate
07:32AM 40.5131 -87.2592 293° West 242 278 10,600  Level Chicago Center
07:33AM 40.6430 -87.6970 291° West  Level FlightAware Approximate
07:33AM 40.5419 -87.3519 292° West 270 311 12,400  Level Chicago Center
07:34AM 40.6709 -87.7927 291° West  Level FlightAware Approximate
07:34AM 40.5717 -87.4486 292° West 283 326 14,300  Level Chicago Center
07:35AM 40.6072 -87.5647 292° West 287 330 16,000 1,500 Climbing Chicago Center
07:36AM 40.6392 -87.6725 291° West 313 360 17,400 1,560 Climbing Chicago Center
07:37AM 40.6725 -87.7831 292° West 324 373 19,200 1,260 Climbing Chicago Center
07:38AM 40.7067 -87.8961 292° West 331 381 20,000 -60 Climbing Chicago Center
07:39AM 40.7411 -88.0122 291° West 339 390 19,100 -1,020 Descending Chicago Center
07:40AM 40.7753 -88.1264 292° West 336 387 18,000 -600 Descending Chicago Center
07:41AM 40.8086 -88.2386 291° West 329 379 18,000  Level Chicago Center
07:42AM 40.8431 -88.3556 291° West 339 390 18,000  Level Chicago Center
07:43AM 40.8769 -88.4725 291° West 340 391 18,000  Level Chicago Center
07:44AM 40.9108 -88.5889 291° West 338 389 18,000  Level Chicago Center
07:45AM 40.9450 -88.7036 292° West 336 387 18,000  Level Chicago Center
07:46AM 40.9789 -88.8192 291° West 335 386 18,000  Level Chicago Center
07:47AM 41.0186 -88.9589 291° West 336 387 18,000 -180 Level Chicago Center
07:48AM 41.0514 -89.0756 290° West 336 387 17,700 -600 Descending Chicago Center
07:49AM 41.0856 -89.1906 292° West 335 386 16,800 -1,020 Descending Chicago Center
07:50AM 41.1169 -89.3061 290° West 331 381 15,700 -1,140 Descending Chicago Center
07:51AM 41.1500 -89.4217 291° West 334 384 14,500 -1,380 Descending Chicago Center
07:52AM 41.1814 -89.5333 291° West 332 382 12,900 -1,560 Descending Chicago Center
07:53AM 41.2106 -89.6383 290° West 320 368 11,400 -900 Descending Chicago Center
07:54AM 41.2394 -89.7428 290° West 311 358 11,100 -240 Descending Chicago Center
07:55AM 41.2733 -89.8456 294° West 307 353 11,000 -300 Descending Chicago Center
07:56AM 41.3125 -89.9633 294° West 297 342 10,600 -1,080 Descending Chicago Center
07:57AM 41.3381 -90.0406 294° West 259 298 8,800 -1,860 Descending Chicago Center
07:58AM 41.3628 -90.1214 292° West 242 278 6,900 -1,860 Descending Chicago Center
07:59AM 41.3889 -90.1986 294° West 236 272 5,000 -1,740 Descending Chicago Center
08:01AM 41.4122 -90.2717 293° West 227 261 3,400 -1,020 Descending Chicago Center
08:02AM 41.4303 -90.3269 294° West 190 219 2,900 -600 Descending Chicago Center
08:03AM 41.4456 -90.3667 297° West 146 168 2,200 -540 Descending Chicago Center
08:04AM 41.4472 -90.4114 273° West 115 132 1,800 -480 Descending Chicago Center
08:05AM 41.4481 -90.4469 272° West 107 123 1,300 -540 Descending Chicago Center